createdAt,value
2022-12-16T00:00:50.111Z,23.20
2022-12-16T00:01:53.227Z,25.10
2022-12-16T00:03:01.447Z,25.33
2022-12-16T00:04:04.317Z,21.15
2022-12-16T00:05:07.396Z,20.70
2022-12-16T00:06:10.982Z,23.05
2022-12-16T00:07:13.729Z,21.75
2022-12-16T00:08:16.087Z,19.98
2022-12-16T00:09:18.465Z,22.92
2022-12-16T00:10:21.412Z,20.00
2022-12-16T00:11:23.725Z,20.65
2022-12-16T00:12:26.279Z,20.73
2022-12-16T00:13:31.006Z,24.60
2022-12-16T00:14:33.694Z,25.92
2022-12-16T00:15:37.669Z,30.88
2022-12-16T00:16:40.092Z,26.90
2022-12-16T00:17:43.007Z,24.25
2022-12-16T00:18:46.357Z,23.83
2022-12-16T00:19:48.749Z,24.20
2022-12-16T00:20:55.441Z,21.85
2022-12-16T00:21:58.226Z,23.17
2022-12-16T00:23:00.554Z,21.23
2022-12-16T00:24:03.209Z,22.30
2022-12-16T00:25:05.883Z,18.42
2022-12-16T00:26:09.288Z,23.45
2022-12-16T00:27:11.651Z,23.45
2022-12-16T00:28:23.082Z,20.15
2022-12-16T00:30:39.521Z,19.48
2022-12-16T00:31:42.212Z,20.05
2022-12-16T00:32:44.658Z,21.33
2022-12-16T00:33:47.022Z,18.05
2022-12-16T00:34:49.346Z,16.38
2022-12-16T00:35:54.239Z,17.58
2022-12-16T00:36:57.253Z,16.38
2022-12-16T00:37:59.709Z,18.60
2022-12-16T00:39:03.256Z,28.92
2022-12-16T00:40:06.284Z,19.23
2022-12-16T00:41:09.479Z,19.52
2022-12-16T00:42:12.387Z,17.77
2022-12-16T00:43:15.382Z,18.90
2022-12-16T00:44:17.742Z,19.60
2022-12-16T00:45:21.033Z,15.25
2022-12-16T00:46:23.561Z,18.77
2022-12-16T00:47:25.980Z,18.40
2022-12-16T00:48:28.360Z,18.38
2022-12-16T00:49:31.783Z,17.35
2022-12-16T00:50:36.554Z,16.98
2022-12-16T00:51:39.818Z,16.38
2022-12-16T00:52:42.414Z,16.55
2022-12-16T00:53:44.905Z,16.60
2022-12-16T00:54:47.544Z,18.48
2022-12-16T00:55:49.949Z,17.23
2022-12-16T00:56:53.035Z,15.63
2022-12-16T00:57:56.454Z,17.63
2022-12-16T00:58:58.725Z,20.13
2022-12-16T01:00:05.194Z,20.73
2022-12-16T01:01:08.345Z,17.08
2022-12-16T01:02:11.103Z,15.48
2022-12-16T01:03:19.496Z,16.10
2022-12-16T01:04:26.587Z,16.40
2022-12-16T01:05:28.932Z,19.42
2022-12-16T01:06:31.381Z,21.88
2022-12-16T01:07:34.145Z,18.80
2022-12-16T01:08:36.569Z,16.10
2022-12-16T01:09:46.069Z,16.52
2022-12-16T01:10:56.374Z,16.10
2022-12-16T01:11:58.765Z,20.83
2022-12-16T01:13:01.999Z,16.27
2022-12-16T01:14:06.958Z,15.05
2022-12-16T01:15:12.457Z,17.15
2022-12-16T01:16:15.388Z,17.48
2022-12-16T01:17:17.716Z,15.27
2022-12-16T01:18:21.217Z,19.83
2022-12-16T01:19:24.234Z,19.05
2022-12-16T01:20:28.361Z,18.50
2022-12-16T01:21:31.137Z,16.42
2022-12-16T01:22:34.815Z,17.38
2022-12-16T01:23:37.721Z,16.63
2022-12-16T01:24:40.329Z,16.98
2022-12-16T01:25:42.722Z,17.17
2022-12-16T01:26:45.012Z,17.95
2022-12-16T01:27:47.337Z,17.67
2022-12-16T01:28:49.863Z,17.15
2022-12-16T01:29:52.237Z,16.38
2022-12-16T01:31:04.532Z,14.48
2022-12-16T01:32:07.086Z,18.05
2022-12-16T01:33:10.700Z,18.30
2022-12-16T01:34:13.193Z,18.15
2022-12-16T01:35:51.643Z,18.42
2022-12-16T01:36:40.873Z,16.13
2022-12-16T01:37:43.323Z,16.92
2022-12-16T01:38:45.687Z,18.58
2022-12-16T01:39:53.505Z,15.50
2022-12-16T01:40:56.661Z,21.05
2022-12-16T01:41:58.999Z,18.27
2022-12-16T01:43:01.497Z,16.77
2022-12-16T01:44:25.114Z,14.85
2022-12-16T01:45:42.506Z,16.48
2022-12-16T01:46:57.060Z,19.63
2022-12-16T01:48:20.453Z,18.45
2022-12-16T01:49:36.429Z,19.75
2022-12-16T01:50:39.833Z,16.35
2022-12-16T01:51:50.473Z,18.20
2022-12-16T01:52:58.983Z,12.95
2022-12-16T01:54:11.812Z,17.08
2022-12-16T01:55:28.359Z,20.05
2022-12-16T01:56:32.988Z,13.90
2022-12-16T01:57:42.629Z,17.00
2022-12-16T01:58:47.914Z,18.67
2022-12-16T01:59:53.526Z,15.57
2022-12-16T02:01:01.134Z,18.08
2022-12-16T02:02:04.513Z,12.82
2022-12-16T02:03:09.240Z,15.50
2022-12-16T02:04:11.675Z,15.65
2022-12-16T02:05:22.200Z,15.38
2022-12-16T02:06:24.843Z,15.55
2022-12-16T02:07:27.170Z,14.23
2022-12-16T02:08:29.794Z,12.80
2022-12-16T02:09:32.206Z,15.90
2022-12-16T02:10:43.452Z,13.98
2022-12-16T02:12:08.075Z,13.82
2022-12-16T02:13:30.682Z,13.90
2022-12-16T02:14:51.338Z,13.05
2022-12-16T02:16:16.816Z,14.80
2022-12-16T02:17:22.475Z,14.27
2022-12-16T02:18:33.864Z,17.02
2022-12-16T02:20:07.951Z,12.52
2022-12-16T02:21:47.513Z,14.88
2022-12-16T02:23:12.596Z,14.25
2022-12-16T02:24:34.334Z,14.82
2022-12-16T02:26:03.418Z,19.80
2022-12-16T02:27:50.063Z,15.20
2022-12-16T02:29:04.104Z,16.27
2022-12-16T02:30:27.195Z,15.70
2022-12-16T02:31:43.905Z,16.63
2022-12-16T02:32:58.638Z,15.63
2022-12-16T02:34:08.959Z,17.20
2022-12-16T02:35:14.864Z,17.63
2022-12-16T02:36:32.040Z,16.23
2022-12-16T02:37:56.881Z,15.45
2022-12-16T02:39:13.209Z,13.55
2022-12-16T02:40:43.866Z,15.70
2022-12-16T02:41:50.486Z,15.38
2022-12-16T02:43:08.453Z,19.10
2022-12-16T02:44:12.043Z,15.63
2022-12-16T02:45:21.591Z,14.00
2022-12-16T02:46:27.540Z,12.65
2022-12-16T02:47:31.127Z,17.20
2022-12-16T02:48:33.492Z,13.57
2022-12-16T02:49:46.442Z,15.60
2022-12-16T02:50:52.612Z,12.13
2022-12-16T02:51:57.758Z,22.75
2022-12-16T02:53:02.355Z,28.10
2022-12-16T02:54:06.586Z,22.77
2022-12-16T02:55:09.839Z,17.67
2022-12-16T02:56:31.939Z,29.23
2022-12-16T02:57:47.985Z,15.48
2022-12-16T02:59:20.216Z,16.15
2022-12-16T03:00:26.254Z,14.25
2022-12-16T03:01:40.110Z,12.55
2022-12-16T03:03:09.506Z,14.95
2022-12-16T03:04:21.732Z,19.13
2022-12-16T03:05:45.630Z,23.20
2022-12-16T03:06:50.786Z,22.17
2022-12-16T03:07:56.393Z,20.77
2022-12-16T03:09:00.867Z,18.63
2022-12-16T03:10:07.681Z,22.90
2022-12-16T03:11:11.027Z,18.33
2022-12-16T03:12:16.494Z,17.38
2022-12-16T03:13:20.989Z,16.00
2022-12-16T03:14:27.605Z,13.65
2022-12-16T03:15:33.627Z,14.75
2022-12-16T03:16:35.988Z,19.17
2022-12-16T03:17:39.474Z,15.35
2022-12-16T03:18:45.178Z,15.00
2022-12-16T03:20:01.763Z,15.13
2022-12-16T03:21:06.611Z,15.73
2022-12-16T03:22:23.741Z,14.93
2022-12-16T03:23:47.463Z,88.55
2022-12-16T03:24:50.016Z,87.28
2022-12-16T03:25:58.160Z,356.33
2022-12-16T03:27:24.838Z,232.77
2022-12-16T03:28:32.321Z,120.15
2022-12-16T03:29:53.385Z,135.35
2022-12-16T03:31:13.117Z,96.75
2022-12-16T03:32:29.801Z,79.45
2022-12-16T03:34:11.534Z,60.15
2022-12-16T03:35:23.545Z,35.92
2022-12-16T03:36:27.648Z,128.15
2022-12-16T03:37:34.461Z,115.03
2022-12-16T03:38:38.386Z,108.53
2022-12-16T03:40:03.345Z,93.25
2022-12-16T03:41:07.221Z,69.10
2022-12-16T03:42:11.454Z,60.40
2022-12-16T03:43:15.272Z,59.35
2022-12-16T03:44:22.652Z,55.80
2022-12-16T03:45:30.191Z,55.20
2022-12-16T03:46:36.241Z,49.10
2022-12-16T03:47:39.080Z,44.53
2022-12-16T03:48:50.561Z,43.08
2022-12-16T03:49:53.200Z,33.67
2022-12-16T03:50:56.191Z,46.63
2022-12-16T03:51:58.864Z,23.75
2022-12-16T03:53:02.020Z,37.88
2022-12-16T03:54:04.430Z,34.03
2022-12-16T03:55:07.156Z,29.45
2022-12-16T03:56:10.049Z,27.60
2022-12-16T03:57:15.289Z,30.45
2022-12-16T03:58:18.683Z,26.83
2022-12-16T03:59:21.129Z,31.42
2022-12-16T04:00:24.927Z,30.05
2022-12-16T04:01:27.279Z,27.50
2022-12-16T04:02:29.714Z,29.52
2022-12-16T04:03:32.597Z,33.05
2022-12-16T04:04:35.712Z,26.52
2022-12-16T04:05:38.666Z,28.27
2022-12-16T04:06:41.037Z,30.27
2022-12-16T04:07:43.586Z,26.42
2022-12-16T04:08:47.334Z,31.42
2022-12-16T04:09:50.866Z,27.45
2022-12-16T04:11:12.553Z,26.38
2022-12-16T04:13:54.605Z,22.02
2022-12-16T04:15:15.631Z,23.55
2022-12-16T04:16:36.773Z,24.58
2022-12-16T04:17:58.307Z,24.05
2022-12-16T04:19:20.783Z,23.63
2022-12-16T04:20:48.597Z,20.25
2022-12-16T04:22:09.532Z,23.55
2022-12-16T04:23:50.254Z,21.13
2022-12-16T04:24:52.634Z,23.40
2022-12-16T04:25:57.846Z,20.75
2022-12-16T04:27:20.746Z,18.92
2022-12-16T04:28:23.169Z,16.98
2022-12-16T04:29:25.678Z,17.95
2022-12-16T04:30:30.474Z,20.63
2022-12-16T04:31:32.941Z,18.98
2022-12-16T04:32:54.174Z,20.10
2022-12-16T04:34:15.389Z,18.77
2022-12-16T04:35:39.193Z,20.42
2022-12-16T04:37:00.444Z,21.38
2022-12-16T04:38:21.774Z,15.82
2022-12-16T04:39:42.804Z,18.55
2022-12-16T04:41:04.458Z,15.63
2022-12-16T04:42:27.237Z,16.25
2022-12-16T04:45:09.029Z,17.30
2022-12-16T04:46:30.297Z,17.92
2022-12-16T04:47:57.091Z,22.05
2022-12-16T04:49:18.585Z,25.20
2022-12-16T04:50:39.549Z,19.67
2022-12-16T04:52:00.681Z,17.40
2022-12-16T04:53:21.901Z,44.70
2022-12-16T04:54:42.839Z,39.63
2022-12-16T04:56:04.782Z,37.33
2022-12-16T04:57:26.101Z,24.75
2022-12-16T04:58:46.998Z,25.25
2022-12-16T05:00:08.228Z,22.95
2022-12-16T05:01:29.468Z,18.80
2022-12-16T05:02:50.488Z,27.98
2022-12-16T05:04:11.540Z,16.13
2022-12-16T05:05:32.727Z,17.02
2022-12-16T05:06:53.985Z,19.48
2022-12-16T05:08:15.118Z,20.95
2022-12-16T05:09:36.213Z,22.38
2022-12-16T05:10:57.335Z,19.35
2022-12-16T05:12:18.335Z,24.95
2022-12-16T05:13:39.317Z,16.23
2022-12-16T05:15:00.782Z,22.48
2022-12-16T05:16:21.962Z,20.95
2022-12-16T05:18:00.004Z,15.52
2022-12-16T05:19:20.821Z,24.10
2022-12-16T05:20:42.066Z,21.83
2022-12-16T05:22:03.352Z,23.48
2022-12-16T05:23:24.545Z,22.50
2022-12-16T05:24:51.265Z,21.55
2022-12-16T05:26:13.999Z,21.45
2022-12-16T05:27:35.017Z,20.58
2022-12-16T05:28:56.034Z,19.98
2022-12-16T05:30:17.237Z,21.73
2022-12-16T05:31:38.678Z,19.52
2022-12-16T05:32:59.844Z,17.83
2022-12-16T05:34:21.031Z,17.70
2022-12-16T05:35:42.391Z,162.63
2022-12-16T05:37:03.204Z,86.22
2022-12-16T05:38:24.312Z,65.83
2022-12-16T05:39:45.521Z,48.35
2022-12-16T05:41:06.480Z,33.17
2022-12-16T05:42:28.330Z,25.02
2022-12-16T05:43:49.582Z,24.15
2022-12-16T05:45:10.997Z,23.33
2022-12-16T05:46:32.377Z,24.05
2022-12-16T05:47:53.647Z,26.05
2022-12-16T05:49:14.670Z,21.38
2022-12-16T05:50:38.457Z,23.02
2022-12-16T05:52:02.764Z,18.90
2022-12-16T05:53:24.185Z,23.48
2022-12-16T05:54:46.001Z,22.63
2022-12-16T05:56:07.258Z,20.90
2022-12-16T05:57:28.173Z,23.77
2022-12-16T05:58:49.148Z,22.45
2022-12-16T06:00:10.879Z,25.13
2022-12-16T06:01:35.060Z,20.60
2022-12-16T06:02:56.361Z,20.58
2022-12-16T06:04:18.101Z,22.55
2022-12-16T06:05:39.296Z,17.73
2022-12-16T06:07:00.469Z,20.13
2022-12-16T06:08:21.569Z,20.95
2022-12-16T06:09:42.719Z,19.67
2022-12-16T06:11:03.862Z,24.33
2022-12-16T06:12:25.402Z,21.42
2022-12-16T06:13:46.871Z,42.97
2022-12-16T06:15:07.995Z,25.45
2022-12-16T06:16:29.041Z,30.83
2022-12-16T06:17:50.113Z,19.23
2022-12-16T06:19:11.200Z,17.30
2022-12-16T06:20:32.297Z,19.67
2022-12-16T06:21:53.449Z,18.10
2022-12-16T06:23:14.596Z,20.83
2022-12-16T06:24:35.348Z,26.38
2022-12-16T06:25:56.379Z,26.13
2022-12-16T06:27:17.764Z,22.83
2022-12-16T06:28:42.034Z,24.58
2022-12-16T06:30:06.785Z,21.23
2022-12-16T06:31:28.423Z,22.70
2022-12-16T06:34:10.983Z,18.42
2022-12-16T06:36:52.987Z,20.70
2022-12-16T06:38:14.267Z,21.10
2022-12-16T06:39:35.401Z,26.10
2022-12-16T06:40:56.910Z,24.38
2022-12-16T06:42:18.032Z,19.33
2022-12-16T06:43:38.941Z,19.48
2022-12-16T06:45:00.116Z,20.17
2022-12-16T06:46:21.557Z,23.40
2022-12-16T06:47:42.574Z,16.02
2022-12-16T06:49:03.714Z,16.48
2022-12-16T06:50:25.035Z,17.05
2022-12-16T06:51:46.084Z,19.67
2022-12-16T06:53:06.953Z,19.52
2022-12-16T06:54:28.037Z,17.45
2022-12-16T06:55:49.312Z,17.58
2022-12-16T06:57:10.532Z,22.05
2022-12-16T06:58:31.693Z,16.98
2022-12-16T06:59:52.510Z,17.10
2022-12-16T07:01:13.677Z,21.60
2022-12-16T07:02:35.741Z,44.60
2022-12-16T07:03:57.711Z,89.50
2022-12-16T07:05:18.937Z,31.63
2022-12-16T07:06:40.070Z,21.80
2022-12-16T07:08:08.843Z,24.25
2022-12-16T07:09:31.031Z,21.20
2022-12-16T07:10:52.176Z,22.05
2022-12-16T07:12:16.466Z,19.63
2022-12-16T07:13:37.542Z,17.83
2022-12-16T07:14:58.673Z,20.60
2022-12-16T07:16:19.853Z,21.80
2022-12-16T07:17:41.884Z,20.63
2022-12-16T07:19:02.936Z,20.02
2022-12-16T07:20:24.610Z,20.63
2022-12-16T07:23:13.068Z,21.08
2022-12-16T07:24:37.296Z,15.20
2022-12-16T07:25:58.415Z,17.75
2022-12-16T07:27:19.447Z,16.50
2022-12-16T07:28:40.499Z,15.38
2022-12-16T07:30:01.621Z,18.23
2022-12-16T07:31:22.872Z,18.30
2022-12-16T07:32:44.875Z,16.63
2022-12-16T07:34:05.769Z,16.35
2022-12-16T07:35:26.930Z,15.90
2022-12-16T07:36:47.924Z,17.10
2022-12-16T07:38:09.642Z,20.27
2022-12-16T07:40:51.470Z,13.93
2022-12-16T07:42:12.733Z,15.25
2022-12-16T07:43:34.139Z,16.60
2022-12-16T07:44:55.585Z,17.42
2022-12-16T07:46:16.705Z,13.05
2022-12-16T07:47:38.699Z,13.93
2022-12-16T07:48:59.509Z,18.30
2022-12-16T07:50:20.563Z,18.87
2022-12-16T07:51:41.929Z,16.65
2022-12-16T07:53:03.706Z,13.57
2022-12-16T07:54:24.611Z,12.98
2022-12-16T07:55:45.420Z,14.73
2022-12-16T07:57:06.316Z,15.30
2022-12-16T07:58:28.495Z,25.42
2022-12-16T07:59:49.932Z,15.70
2022-12-16T08:01:11.844Z,19.45
2022-12-16T08:02:33.131Z,15.88
2022-12-16T08:03:54.237Z,13.93
2022-12-16T08:05:15.251Z,19.60
2022-12-16T08:06:40.340Z,13.13
2022-12-16T08:08:02.288Z,17.40
2022-12-16T08:09:23.502Z,14.93
2022-12-16T08:10:45.016Z,16.42
2022-12-16T08:12:06.122Z,26.40
2022-12-16T08:13:27.152Z,18.25
2022-12-16T08:14:48.318Z,18.20
2022-12-16T08:16:09.637Z,22.35
2022-12-16T08:17:30.756Z,21.00
2022-12-16T08:18:51.963Z,32.80
2022-12-16T08:20:14.056Z,20.38
2022-12-16T08:21:35.256Z,35.55
2022-12-16T08:22:56.491Z,34.65
2022-12-16T08:24:17.762Z,30.92
2022-12-16T08:25:38.956Z,27.33
2022-12-16T08:26:59.947Z,20.95
2022-12-16T08:28:20.949Z,28.67
2022-12-16T08:29:44.998Z,61.40
2022-12-16T08:31:10.261Z,82.05
2022-12-16T08:32:32.964Z,59.15
2022-12-16T08:33:54.014Z,29.80
2022-12-16T08:35:17.035Z,26.30
2022-12-16T08:36:38.049Z,34.67
2022-12-16T08:37:59.124Z,26.85
2022-12-16T08:39:20.281Z,28.92
2022-12-16T08:40:41.279Z,17.50
2022-12-16T08:42:02.069Z,26.98
2022-12-16T08:43:23.377Z,33.27
2022-12-16T08:44:44.365Z,24.88
2022-12-16T08:46:05.531Z,25.27
2022-12-16T08:47:26.756Z,20.70
2022-12-16T08:48:47.972Z,25.20
2022-12-16T08:50:09.549Z,21.98
2022-12-16T08:51:31.119Z,20.60
2022-12-16T08:52:52.233Z,29.13
2022-12-16T08:54:13.297Z,17.75
2022-12-16T08:55:34.479Z,21.48
2022-12-16T08:56:55.635Z,30.15
2022-12-16T08:58:16.756Z,24.13
2022-12-16T08:59:37.769Z,18.33
2022-12-16T09:01:04.732Z,18.73
2022-12-16T09:02:30.385Z,19.25
2022-12-16T09:03:51.576Z,21.08
2022-12-16T09:05:12.818Z,18.58
2022-12-16T09:06:39.934Z,29.92
2022-12-16T09:08:01.762Z,25.02
2022-12-16T09:09:22.984Z,18.67
2022-12-16T09:10:47.089Z,12.38
2022-12-16T09:12:08.275Z,21.33
2022-12-16T09:13:32.992Z,96.78
2022-12-16T09:14:54.341Z,76.00
2022-12-16T09:16:19.476Z,65.55
2022-12-16T09:17:41.078Z,43.17
2022-12-16T09:19:02.147Z,87.00
2022-12-16T09:20:23.476Z,177.07
2022-12-16T09:21:44.704Z,115.03
2022-12-16T09:23:05.547Z,119.05
2022-12-16T09:24:28.763Z,107.90
2022-12-16T09:25:49.895Z,193.15
2022-12-16T09:27:11.876Z,178.25
2022-12-16T09:28:33.198Z,272.50
2022-12-16T09:29:54.492Z,253.63
2022-12-16T09:31:17.038Z,269.10
2022-12-16T09:32:38.218Z,259.05
2022-12-16T09:33:59.468Z,228.25
2022-12-16T09:35:20.532Z,249.90
2022-12-16T09:36:43.381Z,130.68
2022-12-16T09:38:05.974Z,160.43
2022-12-16T09:39:26.985Z,207.10
2022-12-16T09:40:48.073Z,173.90
2022-12-16T09:42:35.625Z,152.20
2022-12-16T09:44:04.768Z,125.47
2022-12-16T09:45:42.074Z,146.25
2022-12-16T09:47:09.015Z,114.25
2022-12-16T09:48:38.833Z,105.03
2022-12-16T09:50:05.313Z,133.52
2022-12-16T09:51:28.500Z,113.75
2022-12-16T09:52:55.387Z,96.47
2022-12-16T09:54:20.587Z,100.90
2022-12-16T09:55:49.379Z,83.32
2022-12-16T09:57:10.472Z,110.40
2022-12-16T09:58:32.932Z,152.75
2022-12-16T10:00:12.217Z,174.60
2022-12-16T10:01:33.669Z,163.57
2022-12-16T10:02:54.893Z,177.95
2022-12-16T10:04:17.759Z,165.98
2022-12-16T10:07:04.567Z,176.18
2022-12-16T10:08:48.152Z,147.85
2022-12-16T10:10:49.849Z,160.93
2022-12-16T10:13:48.414Z,162.70
2022-12-16T10:15:33.364Z,168.90
2022-12-16T10:17:10.627Z,163.95
2022-12-16T10:18:40.236Z,160.65
2022-12-16T10:20:33.829Z,180.68
2022-12-16T10:22:38.814Z,168.60
2022-12-16T10:24:34.442Z,137.68
2022-12-16T10:26:05.283Z,157.32
2022-12-16T10:27:34.351Z,142.90
2022-12-16T10:29:06.516Z,140.35
2022-12-16T10:30:32.419Z,139.77
2022-12-16T10:31:56.022Z,151.55
2022-12-16T10:33:18.309Z,152.35
2022-12-16T10:34:46.086Z,151.52
2022-12-16T10:36:11.273Z,132.75
2022-12-16T10:37:40.300Z,148.30
2022-12-16T10:39:16.109Z,134.02
2022-12-16T10:40:42.626Z,137.23
2022-12-16T10:42:08.226Z,140.02
2022-12-16T10:43:35.314Z,145.45
2022-12-16T10:45:21.822Z,113.97
2022-12-16T10:46:46.536Z,88.78
2022-12-16T10:48:07.771Z,172.80
2022-12-16T10:49:35.685Z,133.07
2022-12-16T10:50:56.861Z,123.70
2022-12-16T10:52:17.886Z,112.45
2022-12-16T10:53:45.694Z,110.85
2022-12-16T10:55:29.990Z,113.60
2022-12-16T10:57:13.747Z,105.15
2022-12-16T10:59:05.702Z,114.30
2022-12-16T11:00:37.416Z,110.30
2022-12-16T11:01:58.895Z,115.15
2022-12-16T11:03:41.601Z,107.70
2022-12-16T11:05:03.265Z,119.63
2022-12-16T11:08:12.937Z,121.95
2022-12-16T11:09:45.195Z,104.35
2022-12-16T11:11:06.723Z,100.05
2022-12-16T11:12:48.294Z,101.63
2022-12-16T11:14:09.379Z,110.23
2022-12-16T11:15:43.443Z,107.55
2022-12-16T11:17:04.882Z,97.97
2022-12-16T11:18:40.060Z,104.68
2022-12-16T11:20:03.989Z,119.53
2022-12-16T11:21:31.086Z,78.32
2022-12-16T11:22:52.407Z,100.53
2022-12-16T11:24:31.952Z,100.85
2022-12-16T11:25:52.993Z,76.22
2022-12-16T11:27:16.734Z,107.55
2022-12-16T11:28:37.975Z,122.65
2022-12-16T11:30:22.033Z,100.53
2022-12-16T11:31:43.346Z,98.78
2022-12-16T11:33:13.206Z,89.15
2022-12-16T11:34:35.138Z,113.07
2022-12-16T11:36:00.140Z,95.40
2022-12-16T11:37:21.395Z,94.32
2022-12-16T11:38:46.462Z,94.75
2022-12-16T11:40:07.207Z,96.57
2022-12-16T11:41:38.651Z,79.53
2022-12-16T11:43:06.403Z,96.38
2022-12-16T11:44:39.124Z,76.40
2022-12-16T11:46:00.850Z,85.50
2022-12-16T11:47:29.586Z,75.78
2022-12-16T11:49:21.898Z,92.50
2022-12-16T11:50:48.029Z,84.90
2022-12-16T11:52:35.761Z,87.40
2022-12-16T11:53:59.822Z,80.30
2022-12-16T11:56:04.946Z,83.50
2022-12-16T11:57:25.374Z,87.05
2022-12-16T11:58:56.638Z,76.18
2022-12-16T12:00:20.902Z,76.28
2022-12-16T12:02:03.082Z,86.68
2022-12-16T12:05:01.310Z,89.97
2022-12-16T12:06:54.492Z,89.75
2022-12-16T12:08:27.643Z,80.25
2022-12-16T12:09:54.088Z,76.28
2022-12-16T12:11:37.879Z,91.50
2022-12-16T12:13:41.308Z,82.53
2022-12-16T12:15:15.605Z,88.85
2022-12-16T12:16:56.650Z,67.60
2022-12-16T12:18:37.142Z,72.32
2022-12-16T12:20:17.681Z,81.40
2022-12-16T12:21:49.797Z,88.60
2022-12-16T12:23:11.495Z,75.07
2022-12-16T12:26:29.448Z,61.28
2022-12-16T12:28:01.509Z,67.15
2022-12-16T12:29:54.741Z,61.92
2022-12-16T12:31:43.977Z,57.60
2022-12-16T12:33:17.309Z,79.38
2022-12-16T12:34:56.024Z,63.35
2022-12-16T12:36:56.953Z,59.47
2022-12-16T12:38:26.781Z,48.72
2022-12-16T12:40:04.829Z,45.75
2022-12-16T12:41:47.045Z,63.47
2022-12-16T12:43:11.859Z,59.30
2022-12-16T12:45:18.293Z,56.33
2022-12-16T12:46:57.982Z,68.43
2022-12-16T12:48:29.573Z,53.22
2022-12-16T12:50:32.260Z,300.58
2022-12-16T12:52:17.705Z,126.05
2022-12-16T12:53:59.056Z,119.28
2022-12-16T12:55:28.800Z,95.10
2022-12-16T12:57:07.432Z,81.40
2022-12-16T12:58:29.732Z,71.68
2022-12-16T13:00:13.207Z,61.55
2022-12-16T13:01:37.358Z,58.15
2022-12-16T13:03:18.422Z,70.18
2022-12-16T13:05:01.530Z,66.00
2022-12-16T13:06:30.713Z,73.30
2022-12-16T13:07:51.750Z,64.00
2022-12-16T13:09:16.174Z,78.68
2022-12-16T13:10:43.041Z,57.92
2022-12-16T13:12:25.951Z,68.47
2022-12-16T13:13:50.331Z,59.78
2022-12-16T13:15:37.985Z,62.97
2022-12-16T13:17:04.716Z,61.15
2022-12-16T13:18:25.762Z,79.10
2022-12-16T13:19:49.555Z,73.07
2022-12-16T13:21:13.180Z,63.28
2022-12-16T13:22:52.180Z,68.22
2022-12-16T13:24:13.830Z,66.53
2022-12-16T13:27:20.078Z,57.63
2022-12-16T13:28:49.197Z,55.35
2022-12-16T13:30:23.356Z,54.25
2022-12-16T13:31:46.711Z,43.38
2022-12-16T13:33:42.222Z,83.70
2022-12-16T13:35:03.300Z,61.03
2022-12-16T13:36:25.489Z,65.30
2022-12-16T13:37:46.645Z,52.58
2022-12-16T13:39:14.374Z,64.22
2022-12-16T13:40:40.618Z,44.42
2022-12-16T13:42:02.624Z,42.30
2022-12-16T13:43:24.254Z,57.80
2022-12-16T13:45:00.427Z,57.20
2022-12-16T13:46:24.195Z,53.50
2022-12-16T13:47:50.966Z,46.00
2022-12-16T13:49:12.223Z,52.20
2022-12-16T13:50:59.877Z,48.08
2022-12-16T13:52:24.167Z,58.40
2022-12-16T13:53:48.261Z,49.67
2022-12-16T13:55:21.389Z,55.95
2022-12-16T13:56:53.974Z,51.42
2022-12-16T13:58:22.280Z,52.20
2022-12-16T13:59:46.760Z,47.60
2022-12-16T14:01:35.045Z,39.90
2022-12-16T14:02:59.036Z,87.28
2022-12-16T14:04:21.189Z,114.80
2022-12-16T14:05:48.512Z,105.50
2022-12-16T14:07:09.778Z,67.45
2022-12-16T14:08:39.563Z,64.88
2022-12-16T14:10:41.311Z,45.40
2022-12-16T14:12:30.946Z,42.80
2022-12-16T14:14:20.709Z,48.25
2022-12-16T14:16:10.067Z,44.88
2022-12-16T14:17:44.404Z,39.08
2022-12-16T14:19:42.584Z,43.15
2022-12-16T14:21:12.679Z,34.13
2022-12-16T14:23:39.157Z,41.53
2022-12-16T14:24:57.264Z,53.28
2022-12-16T14:26:18.153Z,45.97
2022-12-16T14:27:43.271Z,37.15
2022-12-16T14:29:06.110Z,38.28
2022-12-16T14:30:37.534Z,37.28
2022-12-16T14:32:00.951Z,41.30
2022-12-16T14:33:54.394Z,38.67
2022-12-16T14:35:21.045Z,44.25
2022-12-16T14:36:45.232Z,44.33
2022-12-16T14:38:06.228Z,36.72
2022-12-16T14:39:32.924Z,36.58
2022-12-16T14:40:54.137Z,37.33
2022-12-16T14:42:15.193Z,40.38
2022-12-16T14:43:42.354Z,43.72
2022-12-16T14:45:05.673Z,38.95
2022-12-16T14:46:47.268Z,45.35
2022-12-16T14:48:08.440Z,38.40
2022-12-16T14:49:55.222Z,37.83
2022-12-16T14:51:16.307Z,32.92
2022-12-16T14:52:45.601Z,36.65
2022-12-16T14:54:06.743Z,34.22
2022-12-16T14:55:51.014Z,37.75
2022-12-16T14:57:16.179Z,34.17
2022-12-16T14:58:42.211Z,36.53
2022-12-16T15:00:03.450Z,37.28
2022-12-16T15:01:36.323Z,35.75
2022-12-16T15:03:03.418Z,34.38
2022-12-16T15:04:33.509Z,32.17
2022-12-16T15:05:56.713Z,28.70
2022-12-16T15:07:20.744Z,30.30
2022-12-16T15:08:42.620Z,37.65
2022-12-16T15:10:08.361Z,32.30
2022-12-16T15:11:34.402Z,34.03
2022-12-16T15:13:00.077Z,28.85
2022-12-16T15:14:22.630Z,34.50
2022-12-16T15:16:07.379Z,41.13
2022-12-16T15:17:42.200Z,40.03
2022-12-16T15:19:22.243Z,35.03
2022-12-16T15:20:46.111Z,103.38
2022-12-16T15:22:07.310Z,108.93
2022-12-16T15:23:57.736Z,120.38
2022-12-16T15:25:19.203Z,60.72
2022-12-16T15:26:46.728Z,50.40
2022-12-16T15:28:15.542Z,58.00
2022-12-16T15:29:50.158Z,47.50
2022-12-16T15:31:11.269Z,48.63
2022-12-16T15:32:44.073Z,50.95
2022-12-16T15:34:05.072Z,52.30
2022-12-16T15:35:27.853Z,31.98
2022-12-16T15:36:51.573Z,149.63
2022-12-16T15:38:12.562Z,62.17
2022-12-16T15:40:00.078Z,40.08
2022-12-16T15:41:23.771Z,32.35
2022-12-16T15:42:47.042Z,31.85
2022-12-16T15:44:08.746Z,32.25
2022-12-16T15:45:42.809Z,30.85
2022-12-16T15:47:07.441Z,30.42
2022-12-16T15:48:32.628Z,22.08
2022-12-16T15:50:03.602Z,21.05
2022-12-16T15:51:41.691Z,17.95
2022-12-16T15:53:02.825Z,19.83
2022-12-16T15:54:23.916Z,21.73
2022-12-16T15:55:49.810Z,33.40
2022-12-16T15:57:11.076Z,32.17
2022-12-16T16:00:18.466Z,26.95
2022-12-16T16:01:45.743Z,29.70
2022-12-16T16:03:07.881Z,27.50
2022-12-16T16:04:43.710Z,31.52
2022-12-16T16:06:04.611Z,30.13
2022-12-16T16:07:37.453Z,25.60
2022-12-16T16:08:58.526Z,27.73
2022-12-16T16:10:40.469Z,27.02
2022-12-16T16:12:01.515Z,27.48
2022-12-16T16:13:23.345Z,23.00
2022-12-16T16:14:44.509Z,27.65
2022-12-16T16:16:06.361Z,22.13
2022-12-16T16:17:40.374Z,49.38
2022-12-16T16:19:02.009Z,73.18
2022-12-16T16:20:23.795Z,42.28
2022-12-16T16:23:06.453Z,39.00
2022-12-16T16:24:28.032Z,27.42
2022-12-16T16:25:49.302Z,33.05
2022-12-16T16:27:12.800Z,27.35
2022-12-16T16:28:34.085Z,26.38
2022-12-16T16:29:55.315Z,23.63
2022-12-16T16:31:17.552Z,29.50
2022-12-16T16:32:38.656Z,25.55
2022-12-16T16:33:59.769Z,28.00
2022-12-16T16:35:22.107Z,29.08
2022-12-16T16:36:43.577Z,34.92
2022-12-16T16:38:04.528Z,26.77
2022-12-16T16:39:26.722Z,22.92
2022-12-16T16:40:47.937Z,22.48
2022-12-16T16:42:09.122Z,28.25
2022-12-16T16:43:30.593Z,24.33
2022-12-16T16:46:14.158Z,52.10
2022-12-16T16:47:55.634Z,45.47
2022-12-16T16:49:16.453Z,58.35
2022-12-16T16:50:37.919Z,34.42
2022-12-16T16:51:59.372Z,37.60
2022-12-16T16:53:20.709Z,25.92
2022-12-16T16:54:41.794Z,30.23
2022-12-16T16:56:02.832Z,25.75
2022-12-16T16:57:23.994Z,24.10
2022-12-16T16:58:47.739Z,27.63
2022-12-16T17:00:08.921Z,22.33
2022-12-16T17:01:35.759Z,23.05
2022-12-16T17:02:57.220Z,20.83
2022-12-16T17:04:18.875Z,20.63
2022-12-16T17:05:40.594Z,27.33
2022-12-16T17:08:23.547Z,28.77
2022-12-16T17:11:05.936Z,37.95
2022-12-16T17:12:41.675Z,30.48
2022-12-16T17:14:05.306Z,33.60
2022-12-16T17:15:39.467Z,34.10
2022-12-16T17:17:00.806Z,32.40
2022-12-16T17:18:23.004Z,30.58
2022-12-16T17:19:44.623Z,32.80
2022-12-16T17:21:05.907Z,29.38
2022-12-16T17:22:27.042Z,29.20
2022-12-16T17:23:48.147Z,28.27
2022-12-16T17:25:09.279Z,30.73
2022-12-16T17:26:30.277Z,28.73
2022-12-16T17:27:51.522Z,31.02
2022-12-16T17:29:12.814Z,28.20
2022-12-16T17:30:43.488Z,33.75
2022-12-16T17:32:08.523Z,27.30
2022-12-16T17:33:29.534Z,37.60
2022-12-16T17:34:50.677Z,27.10
2022-12-16T17:36:14.910Z,25.48
2022-12-16T17:37:36.189Z,24.77
2022-12-16T17:39:02.655Z,29.80
2022-12-16T17:40:25.162Z,29.52
2022-12-16T17:41:48.786Z,19.45
2022-12-16T17:43:22.290Z,261.70
2022-12-16T17:44:44.328Z,191.30